Time;durP1;ratioP1;P1;durP2;ratioP2;P2;SDS_P1;SDS_P2;PMS_P1;PMS_P2;Temp;Humidity;BMP_temperature;BMP_pressure;BME280_temperature;BME280_humidity;BME280_pressure;Samples;Min_cycle;Max_cycle;Signal;HPM_P1;HPM_P2
2023/06/14 00:01:55;;;;;;;;;;;24.50;41.00;;;;;;10208302;28;94649;-69
2023/06/14 00:06:57;;;;;;;;;;;24.50;40.80;;;;;;10208523;28;93843;-70
2023/06/14 00:11:59;;;;;;;;;;;24.50;40.80;;;;;;10208336;28;93578;-70
2023/06/14 00:17:01;;;;;;;;;;;24.50;40.60;;;;;;10205390;28;93448;-70
2023/06/14 00:22:03;;;;;;;;;;;24.40;40.50;;;;;;10205189;28;97321;-70
2023/06/14 00:27:05;;;;;;;;;;;24.40;40.40;;;;;;10206906;28;94111;-70
2023/06/14 00:32:07;;;;;;;;;;;24.40;40.40;;;;;;10206833;28;93571;-70
2023/06/14 00:37:09;;;;;;;;;;;24.30;40.40;;;;;;10206980;28;93251;-70
2023/06/14 00:42:11;;;;;;;;;;;24.30;40.30;;;;;;10206114;28;93668;-69
2023/06/14 00:47:13;;;;;;;;;;;24.30;40.20;;;;;;10205729;28;93977;-69
2023/06/14 00:52:16;;;;;;;;;;;24.20;40.10;;;;;;10206352;28;93399;-69
2023/06/14 00:57:18;;;;;;;;;;;24.20;40.00;;;;;;10189425;28;92874;-70
2023/06/14 01:02:21;;;;;;;;;;;24.20;40.00;;;;;;10188651;28;94792;-69
2023/06/14 01:07:42;;;;;;;;;;;24.20;40.10;;;;;;10205853;28;94520;-71
2023/06/14 01:13:02;;;;;;;;;;;24.10;40.60;;;;;;10204337;28;97081;-70
2023/06/14 01:18:04;;;;;;;;;;;24.10;39.90;;;;;;10205727;28;93087;-70
2023/06/14 01:23:06;;;;;;;;;;;24.10;39.80;;;;;;10205214;28;93552;-69
2023/06/14 01:28:11;;;;;;;;;;;24.00;39.80;;;;;;10207630;28;93584;-69
2023/06/14 01:33:14;;;;;;;;;;;24.00;39.60;;;;;;10212548;28;93250;-70
2023/06/14 01:38:17;;;;;;;;;;;24.00;39.90;;;;;;10212825;28;93499;-69
2023/06/14 01:43:19;;;;;;;;;;;23.90;39.80;;;;;;10211246;28;93577;-69
2023/06/14 01:48:21;;;;;;;;;;;23.90;39.90;;;;;;10194255;28;93480;-69
2023/06/14 01:53:23;;;;;;;;;;;23.90;39.90;;;;;;10212328;28;94626;-69
2023/06/14 01:58:26;;;;;;;;;;;23.80;39.80;;;;;;10212726;28;96962;-70
2023/06/14 02:03:27;;;;;;;;;;;23.80;39.90;;;;;;10209705;28;97308;-69
2023/06/14 02:08:29;;;;;;;;;;;23.80;40.00;;;;;;10212116;28;94756;-70
2023/06/14 02:13:31;;;;;;;;;;;23.80;39.80;;;;;;10193471;28;95270;-70
2023/06/14 02:18:33;;;;;;;;;;;23.70;40.10;;;;;;10210978;28;93736;-70
2023/06/14 02:23:35;;;;;;;;;;;23.70;40.10;;;;;;10211460;28;94491;-70
2023/06/14 02:28:36;;;;;;;;;;;23.70;40.00;;;;;;10210800;28;94378;-70
2023/06/14 02:33:38;;;;;;;;;;;23.60;40.20;;;;;;10210740;28;94029;-70
2023/06/14 02:38:41;;;;;;;;;;;23.60;40.00;;;;;;10193773;28;92697;-69
2023/06/14 02:43:42;;;;;;;;;;;23.50;40.10;;;;;;10193244;28;92584;-70
2023/06/14 02:48:45;;;;;;;;;;;23.50;40.20;;;;;;10210107;28;94438;-70
2023/06/14 02:53:46;;;;;;;;;;;23.50;40.10;;;;;;10174581;28;95877;-70
2023/06/14 02:58:48;;;;;;;;;;;23.50;40.30;;;;;;10209957;28;93670;-69
2023/06/14 03:03:50;;;;;;;;;;;23.40;40.40;;;;;;10210979;28;94623;-69
2023/06/14 03:08:54;;;;;;;;;;;23.40;40.20;;;;;;10209817;28;94119;-69
2023/06/14 03:13:56;;;;;;;;;;;23.40;40.40;;;;;;10209909;28;94421;-69
2023/06/14 03:18:58;;;;;;;;;;;23.40;40.50;;;;;;10209663;28;93507;-70
2023/06/14 03:24:00;;;;;;;;;;;23.30;40.50;;;;;;10209255;28;94455;-70
2023/06/14 03:29:02;;;;;;;;;;;23.30;40.60;;;;;;10209479;28;93790;-69
2023/06/14 03:34:03;;;;;;;;;;;23.20;40.70;;;;;;10208958;28;93521;-69
2023/06/14 03:39:05;;;;;;;;;;;23.20;40.90;;;;;;10208162;28;93761;-69
2023/06/14 03:44:07;;;;;;;;;;;23.10;42.10;;;;;;10205656;28;96757;-70
2023/06/14 03:49:09;;;;;;;;;;;23.10;41.40;;;;;;10208035;28;93366;-69
2023/06/14 03:54:11;;;;;;;;;;;23.10;41.40;;;;;;10208158;28;94666;-69
2023/06/14 03:59:33;;;;;;;;;;;23.00;41.50;;;;;;10208391;28;95377;-69
2023/06/14 04:04:35;;;;;;;;;;;23.00;41.40;;;;;;10208029;28;94479;-69
2023/06/14 04:09:37;;;;;;;;;;;23.00;41.60;;;;;;10206755;28;93711;-69
2023/06/14 04:14:39;;;;;;;;;;;23.00;41.80;;;;;;10208354;28;93105;-70
2023/06/14 04:19:41;;;;;;;;;;;23.00;42.00;;;;;;10207807;28;93103;-69
2023/06/14 04:24:44;;;;;;;;;;;23.00;42.20;;;;;;10206818;28;92853;-69
2023/06/14 04:29:53;;;;;;;;;;;22.90;42.10;;;;;;10190195;28;93645;-69
2023/06/14 04:34:59;;;;;;;;;;;22.90;42.30;;;;;;10205160;28;96978;-69
2023/06/14 04:40:00;;;;;;;;;;;22.90;42.50;;;;;;10189846;28;93124;-70
2023/06/14 04:45:02;;;;;;;;;;;22.90;42.60;;;;;;10189548;28;93641;-69
2023/06/14 04:50:04;;;;;;;;;;;22.90;42.70;;;;;;10701532;22;94774;-61
2023/06/14 04:55:06;;;;;;;;;;;22.90;42.80;;;;;;10285880;28;94652;-61
2023/06/14 05:00:11;;;;;;;;;;;22.90;42.90;;;;;;10287635;28;93620;-62
2023/06/14 05:05:15;;;;;;;;;;;22.80;43.00;;;;;;10289839;28;93457;-61
2023/06/14 05:10:17;;;;;;;;;;;22.80;43.10;;;;;;10294979;28;92790;-61
2023/06/14 05:15:19;;;;;;;;;;;22.80;43.20;;;;;;10293183;28;94638;-62
2023/06/14 05:20:22;;;;;;;;;;;22.80;43.30;;;;;;10294033;28;94595;-62
2023/06/14 05:25:24;;;;;;;;;;;22.80;43.40;;;;;;10291186;28;96076;-61
2023/06/14 05:30:26;;;;;;;;;;;22.80;43.40;;;;;;10292685;28;93895;-61
2023/06/14 05:35:28;;;;;;;;;;;22.70;43.50;;;;;;10291486;28;93543;-62
2023/06/14 05:40:29;;;;;;;;;;;22.70;43.70;;;;;;10290616;28;93574;-61
2023/06/14 05:45:32;;;;;;;;;;;22.70;43.90;;;;;;10292947;28;93676;-62
2023/06/14 05:50:33;;;;;;;;;;;22.60;44.80;;;;;;10262824;28;93742;-62
2023/06/14 05:55:35;;;;;;;;;;;22.40;45.00;;;;;;10280234;28;95450;-62
2023/06/14 06:00:38;;;;;;;;;;;22.40;45.30;;;;;;10284204;28;93087;-62
2023/06/14 06:05:40;;;;;;;;;;;22.40;45.60;;;;;;10242059;28;94437;-63
2023/06/14 06:10:42;;;;;;;;;;;22.40;45.80;;;;;;10314128;28;94526;-65
2023/06/14 06:15:44;;;;;;;;;;;22.40;46.00;;;;;;10282574;28;96944;-64
2023/06/14 06:20:47;;;;;;;;;;;22.40;46.20;;;;;;10287738;28;94086;-65
2023/06/14 06:25:48;;;;;;;;;;;22.40;46.30;;;;;;10303209;28;93486;-64
2023/06/14 06:30:50;;;;;;;;;;;22.50;46.40;;;;;;10323469;28;94479;-64
2023/06/14 06:35:53;;;;;;;;;;;22.60;46.40;;;;;;10284178;28;94863;-65
2023/06/14 06:40:56;;;;;;;;;;;22.50;46.20;;;;;;10273134;28;94681;-65
2023/06/14 06:45:58;;;;;;;;;;;22.60;46.10;;;;;;10268927;28;95198;-64
2023/06/14 06:51:00;;;;;;;;;;;22.70;45.80;;;;;;10281879;28;93665;-65
2023/06/14 06:56:01;;;;;;;;;;;22.70;45.30;;;;;;10281734;28;95209;-65
2023/06/14 07:01:03;;;;;;;;;;;22.80;45.40;;;;;;10281446;28;94842;-64
2023/06/14 07:06:05;;;;;;;;;;;22.90;45.30;;;;;;10261748;28;95775;-63
2023/06/14 07:11:07;;;;;;;;;;;22.90;45.10;;;;;;10280720;28;94448;-63
2023/06/14 07:16:09;;;;;;;;;;;23.00;44.90;;;;;;10285662;28;94459;-64
2023/06/14 07:21:10;;;;;;;;;;;23.10;44.80;;;;;;10304721;28;92693;-63
2023/06/14 07:26:12;;;;;;;;;;;23.20;44.40;;;;;;10302102;28;94094;-63
2023/06/14 07:31:15;;;;;;;;;;;23.20;44.10;;;;;;10286558;28;94715;-63
2023/06/14 07:36:17;;;;;;;;;;;23.30;44.20;;;;;;10299287;28;94506;-63
2023/06/14 07:41:19;;;;;;;;;;;23.30;43.80;;;;;;10302969;28;92682;-64
2023/06/14 07:46:21;;;;;;;;;;;23.30;43.70;;;;;;10279694;28;93833;-64
2023/06/14 07:51:23;;;;;;;;;;;23.30;43.70;;;;;;10278081;28;93422;-63
2023/06/14 07:56:25;;;;;;;;;;;23.30;43.40;;;;;;10259301;28;95993;-64
2023/06/14 08:01:28;;;;;;;;;;;23.40;43.30;;;;;;10278519;28;94529;-62
2023/06/14 08:06:30;;;;;;;;;;;23.40;43.20;;;;;;10288495;28;94540;-63
2023/06/14 08:11:32;;;;;;;;;;;23.50;44.10;;;;;;10279714;28;92835;-63
2023/06/14 08:16:36;;;;;;;;;;;23.60;44.90;;;;;;10298243;28;93650;-62
2023/06/14 08:21:38;;;;;;;;;;;23.60;44.70;;;;;;10301909;28;93772;-62
2023/06/14 08:26:40;;;;;;;;;;;23.70;44.40;;;;;;10285821;28;93658;-64
2023/06/14 08:31:41;;;;;;;;;;;23.70;45.00;;;;;;10278397;28;93680;-64
2023/06/14 08:36:43;;;;;;;;;;;23.70;44.70;;;;;;10277376;28;94518;-62
2023/06/14 08:41:48;;;;;;;;;;;23.70;45.10;;;;;;10264154;28;92585;-62
2023/06/14 08:46:51;;;;;;;;;;;23.80;44.40;;;;;;10298428;28;96933;-63
2023/06/14 08:51:57;;;;;;;;;;;24.00;44.00;;;;;;10292332;28;94543;-62
2023/06/14 08:56:59;;;;;;;;;;;24.00;43.90;;;;;;10275088;28;93680;-63
2023/06/14 09:02:03;;;;;;;;;;;24.00;44.40;;;;;;10302060;28;93538;-63
2023/06/14 09:07:14;;;;;;;;;;;24.00;43.70;;;;;;10303283;28;93000;-62
2023/06/14 09:12:16;;;;;;;;;;;24.00;44.10;;;;;;10301667;28;94465;-62
2023/06/14 09:17:18;;;;;;;;;;;24.00;43.60;;;;;;10301719;28;94058;-63
2023/06/14 09:22:20;;;;;;;;;;;24.00;43.70;;;;;;10299017;28;93707;-63
2023/06/14 09:27:22;;;;;;;;;;;23.90;44.00;;;;;;10233296;28;95765;-63
2023/06/14 09:32:24;;;;;;;;;;;23.90;44.20;;;;;;10253200;28;94012;-63
2023/06/14 09:37:30;;;;;;;;;;;23.90;44.50;;;;;;10269802;28;96321;-64
2023/06/14 09:42:35;;;;;;;;;;;23.90;44.70;;;;;;10265840;28;94244;-63
2023/06/14 09:47:38;;;;;;;;;;;23.90;44.80;;;;;;10257923;28;95162;-63
2023/06/14 09:52:52;;;;;;;;;;;23.90;45.10;;;;;;10292017;28;93496;-63
2023/06/14 09:57:54;;;;;;;;;;;24.00;45.30;;;;;;10285383;28;94467;-63
2023/06/14 10:03:00;;;;;;;;;;;24.00;44.80;;;;;;10282867;28;94553;-63
2023/06/14 10:08:08;;;;;;;;;;;24.00;44.70;;;;;;10282615;28;94690;-63
2023/06/14 10:13:10;;;;;;;;;;;24.10;44.70;;;;;;10284083;28;92934;-63
2023/06/14 10:18:33;;;;;;;;;;;24.20;44.70;;;;;;10297792;28;96131;-63
2023/06/14 10:23:38;;;;;;;;;;;24.30;44.60;;;;;;10311900;28;94477;-63
2023/06/14 10:28:39;;;;;;;;;;;24.40;44.60;;;;;;10279187;28;96877;-62
2023/06/14 10:33:50;;;;;;;;;;;24.40;44.60;;;;;;10312565;28;93667;-63
2023/06/14 10:39:04;;;;;;;;;;;24.40;44.50;;;;;;10308437;28;94449;-63
2023/06/14 10:44:12;;;;;;;;;;;24.40;44.70;;;;;;10265038;28;93575;-62
2023/06/14 10:49:20;;;;;;;;;;;24.40;44.70;;;;;;10280592;28;93687;-63
2023/06/14 10:54:22;;;;;;;;;;;24.50;44.70;;;;;;10317858;28;93685;-64
2023/06/14 10:59:23;;;;;;;;;;;24.50;44.80;;;;;;10321421;28;93524;-63
2023/06/14 11:04:34;;;;;;;;;;;24.50;44.80;;;;;;10304902;28;93763;-64
2023/06/14 11:09:47;;;;;;;;;;;24.50;44.90;;;;;;10267039;28;94555;-63
2023/06/14 11:14:49;;;;;;;;;;;24.50;45.00;;;;;;10281185;28;93823;-63
2023/06/14 11:20:06;;;;;;;;;;;24.40;45.00;;;;;;10281056;28;96809;-64
2023/06/14 11:25:09;;;;;;;;;;;24.40;45.10;;;;;;10292577;28;94121;-63
2023/06/14 11:30:11;;;;;;;;;;;24.40;45.30;;;;;;10279715;28;94654;-63
2023/06/14 11:35:13;;;;;;;;;;;24.50;45.40;;;;;;10279186;28;94346;-65
2023/06/14 11:40:15;;;;;;;;;;;24.40;45.40;;;;;;10318602;28;93468;-64
2023/06/14 11:45:18;;;;;;;;;;;24.40;45.40;;;;;;10312591;28;93533;-63
2023/06/14 11:50:20;;;;;;;;;;;24.40;45.50;;;;;;10200328;28;95205;-63
2023/06/14 11:55:25;;;;;;;;;;;24.40;45.60;;;;;;10240562;28;92932;-63
2023/06/14 12:00:29;;;;;;;;;;;24.40;45.70;;;;;;10239497;28;95170;-63
2023/06/14 12:05:32;;;;;;;;;;;24.40;45.70;;;;;;10235359;28;93770;-64
2023/06/14 12:10:43;;;;;;;;;;;24.40;45.70;;;;;;10208741;28;97826;-63
2023/06/14 12:15:53;;;;;;;;;;;24.40;45.80;;;;;;10238390;28;93884;-63
2023/06/14 12:21:02;;;;;;;;;;;24.40;45.90;;;;;;10239181;28;94483;-64
2023/06/14 12:26:04;;;;;;;;;;;24.50;45.90;;;;;;10234459;28;94945;-63
2023/06/14 12:31:07;;;;;;;;;;;24.40;46.00;;;;;;10233959;28;94535;-63
2023/06/14 12:36:09;;;;;;;;;;;24.50;46.00;;;;;;10237960;28;94185;-63
2023/06/14 12:41:12;;;;;;;;;;;24.50;46.00;;;;;;10239079;28;94863;-63
2023/06/14 12:46:13;;;;;;;;;;;24.50;46.00;;;;;;10239296;28;92488;-63
2023/06/14 12:51:15;;;;;;;;;;;24.50;46.00;;;;;;10239936;28;93493;-63
2023/06/14 12:56:17;;;;;;;;;;;24.50;45.90;;;;;;10259626;28;94776;-63
2023/06/14 13:01:19;;;;;;;;;;;24.50;45.90;;;;;;10269276;28;95930;-63
2023/06/14 13:06:22;;;;;;;;;;;24.50;45.90;;;;;;10237343;28;94411;-62
2023/06/14 13:11:24;;;;;;;;;;;24.50;46.30;;;;;;10254591;28;93686;-63
2023/06/14 13:16:26;;;;;;;;;;;24.60;46.40;;;;;;10240846;28;94506;-65
2023/06/14 13:21:27;;;;;;;;;;;24.60;46.70;;;;;;10256716;28;93422;-62
2023/06/14 13:26:29;;;;;;;;;;;24.70;47.60;;;;;;10240088;28;93648;-63
2023/06/14 13:31:31;;;;;;;;;;;24.70;47.20;;;;;;10242932;28;93541;-64
2023/06/14 13:36:34;;;;;;;;;;;24.70;47.20;;;;;;10281782;28;94030;-63
2023/06/14 13:41:36;;;;;;;;;;;24.70;47.20;;;;;;10283279;28;93531;-63
2023/06/14 13:46:38;;;;;;;;;;;24.70;47.20;;;;;;10279976;28;93680;-62
2023/06/14 13:51:39;;;;;;;;;;;24.60;47.20;;;;;;10275124;28;95871;-63
2023/06/14 13:56:41;;;;;;;;;;;24.60;47.20;;;;;;10283306;28;95849;-62
2023/06/14 14:01:43;;;;;;;;;;;24.60;47.30;;;;;;10282868;28;94593;-63
2023/06/14 14:06:46;;;;;;;;;;;24.60;47.30;;;;;;10285700;28;94583;-62
2023/06/14 14:11:50;;;;;;;;;;;24.50;47.30;;;;;;10262640;28;95626;-64
2023/06/14 14:16:53;;;;;;;;;;;24.50;47.40;;;;;;10301740;28;94711;-62
2023/06/14 14:21:54;;;;;;;;;;;24.50;47.30;;;;;;10284256;28;93045;-62
2023/06/14 14:26:59;;;;;;;;;;;24.50;47.40;;;;;;10284012;28;92564;-63
2023/06/14 14:32:01;;;;;;;;;;;24.50;47.50;;;;;;10314996;28;94435;-62
2023/06/14 14:37:03;;;;;;;;;;;24.50;47.60;;;;;;10309219;28;93438;-62
2023/06/14 14:42:05;;;;;;;;;;;24.50;47.40;;;;;;10282040;28;95858;-62
2023/06/14 14:47:08;;;;;;;;;;;24.50;47.60;;;;;;10266679;28;94412;-62
2023/06/14 14:52:10;;;;;;;;;;;24.50;47.60;;;;;;10282751;28;93414;-63
2023/06/14 14:57:24;;;;;;;;;;;24.50;45.60;;;;;;10273990;28;93424;-62
2023/06/14 15:02:26;;;;;;;;;;;24.60;43.60;;;;;;10270025;28;94577;-62
2023/06/14 15:07:28;;;;;;;;;;;24.50;42.60;;;;;;10318210;28;94172;-62
2023/06/14 15:12:29;;;;;;;;;;;24.50;41.60;;;;;;10323066;28;94457;-60
2023/06/14 15:17:31;;;;;;;;;;;24.50;41.60;;;;;;10330620;28;92996;-61
2023/06/14 15:22:33;;;;;;;;;;;24.50;42.30;;;;;;10331451;28;93599;-61
2023/06/14 15:27:35;;;;;;;;;;;24.60;42.50;;;;;;10330808;28;93507;-60
2023/06/14 15:32:37;;;;;;;;;;;24.60;42.80;;;;;;10329037;28;96788;-60
2023/06/14 15:37:39;;;;;;;;;;;24.60;43.10;;;;;;10331184;28;93713;-60
2023/06/14 15:42:40;;;;;;;;;;;24.60;43.50;;;;;;10330596;28;93721;-61
2023/06/14 15:47:42;;;;;;;;;;;24.60;44.90;;;;;;10328576;28;92772;-60
2023/06/14 15:52:44;;;;;;;;;;;24.60;43.80;;;;;;10330165;28;94657;-60
2023/06/14 15:57:46;;;;;;;;;;;24.70;45.20;;;;;;10330573;28;94712;-63
2023/06/14 16:02:49;;;;;;;;;;;24.70;45.40;;;;;;10330278;28;93557;-63
2023/06/14 16:07:52;;;;;;;;;;;24.80;46.70;;;;;;10330671;28;92054;-62
2023/06/14 16:12:54;;;;;;;;;;;24.80;45.60;;;;;;10329716;28;93495;-63
2023/06/14 16:17:56;;;;;;;;;;;24.90;44.60;;;;;;10330159;28;93836;-63
2023/06/14 16:22:57;;;;;;;;;;;25.00;42.70;;;;;;10327283;28;95791;-62
2023/06/14 16:27:59;;;;;;;;;;;25.00;41.70;;;;;;10329840;28;93535;-63
2023/06/14 16:33:01;;;;;;;;;;;25.00;40.60;;;;;;10330419;28;93541;-62
2023/06/14 16:38:03;;;;;;;;;;;25.00;41.20;;;;;;10312103;28;94277;-61
2023/06/14 16:43:05;;;;;;;;;;;25.00;40.80;;;;;;10311581;28;93556;-62
2023/06/14 16:48:07;;;;;;;;;;;25.00;40.40;;;;;;10297268;28;93695;-62
2023/06/14 16:53:08;;;;;;;;;;;25.00;39.40;;;;;;10269496;28;93524;-62
2023/06/14 16:58:10;;;;;;;;;;;25.00;39.90;;;;;;10286596;28;92855;-62
2023/06/14 17:03:12;;;;;;;;;;;25.00;39.60;;;;;;10287349;28;93608;-62
2023/06/14 17:08:14;;;;;;;;;;;25.00;39.90;;;;;;10286636;28;94520;-63
2023/06/14 17:13:16;;;;;;;;;;;25.00;39.50;;;;;;10284531;28;96007;-62
2023/06/14 17:18:17;;;;;;;;;;;25.00;39.40;;;;;;10269568;28;94580;-62
2023/06/14 17:23:19;;;;;;;;;;;25.00;39.50;;;;;;10287606;28;94610;-62
2023/06/14 17:28:21;;;;;;;;;;;25.10;39.60;;;;;;10287532;28;93856;-63
2023/06/14 17:33:22;;;;;;;;;;;25.10;39.80;;;;;;10286982;28;94574;-62
2023/06/14 17:38:29;;;;;;;;;;;25.10;39.80;;;;;;10286640;28;93667;-62
2023/06/14 17:43:30;;;;;;;;;;;25.10;39.80;;;;;;10287421;28;93535;-63
2023/06/14 17:48:33;;;;;;;;;;;25.10;39.80;;;;;;10279679;28;92823;-62
2023/06/14 17:53:35;;;;;;;;;;;25.10;39.50;;;;;;10265897;28;95207;-62
2023/06/14 17:58:36;;;;;;;;;;;25.10;40.00;;;;;;10268170;28;93978;-63
2023/06/14 18:03:38;;;;;;;;;;;25.20;40.20;;;;;;10283579;28;96894;-61
2023/06/14 18:08:47;;;;;;;;;;;25.20;40.10;;;;;;10285133;28;93434;-61
2023/06/14 18:13:49;;;;;;;;;;;25.20;39.80;;;;;;10291932;28;94671;-61
2023/06/14 18:18:51;;;;;;;;;;;25.30;40.00;;;;;;10293038;28;93361;-61
2023/06/14 18:23:54;;;;;;;;;;;25.40;39.90;;;;;;10292478;28;94441;-61
2023/06/14 18:28:56;;;;;;;;;;;25.30;39.80;;;;;;10291813;28;93505;-61
2023/06/14 18:33:57;;;;;;;;;;;25.40;39.90;;;;;;10292489;28;94611;-62
2023/06/14 18:38:59;;;;;;;;;;;25.30;40.00;;;;;;10274444;28;93729;-61
2023/06/14 18:44:01;;;;;;;;;;;25.30;39.90;;;;;;10291122;28;93093;-60
2023/06/14 18:49:03;;;;;;;;;;;25.20;40.10;;;;;;10290312;28;94571;-61
2023/06/14 18:54:05;;;;;;;;;;;25.10;40.50;;;;;;10288080;28;98064;-62
2023/06/14 18:59:06;;;;;;;;;;;25.00;41.10;;;;;;10290154;28;93672;-63
2023/06/14 19:04:08;;;;;;;;;;;25.00;41.20;;;;;;10290658;28;93533;-61
2023/06/14 19:09:10;;;;;;;;;;;25.00;41.60;;;;;;10289177;28;93375;-61
2023/06/14 19:14:11;;;;;;;;;;;25.00;41.80;;;;;;10273561;28;94567;-62
2023/06/14 19:19:14;;;;;;;;;;;24.90;41.90;;;;;;10291290;28;93719;-61
2023/06/14 19:24:15;;;;;;;;;;;24.90;42.00;;;;;;10289656;28;94511;-61
2023/06/14 19:29:17;;;;;;;;;;;24.90;42.10;;;;;;10273991;28;93885;-61
2023/06/14 19:34:19;;;;;;;;;;;24.90;42.20;;;;;;10289925;28;93493;-62
2023/06/14 19:39:21;;;;;;;;;;;24.80;42.20;;;;;;10288733;28;93526;-62
2023/06/14 19:44:23;;;;;;;;;;;24.90;42.40;;;;;;10287704;28;96094;-61
2023/06/14 19:49:25;;;;;;;;;;;24.80;42.70;;;;;;10288659;28;93670;-61
2023/06/14 19:54:28;;;;;;;;;;;24.80;42.80;;;;;;10272245;28;114819;-61
2023/06/14 19:59:33;;;;;;;;;;;24.80;43.00;;;;;;10288849;28;93663;-62
2023/06/14 20:04:37;;;;;;;;;;;24.70;43.10;;;;;;10289341;28;94400;-62
2023/06/14 20:09:39;;;;;;;;;;;24.70;43.20;;;;;;10289190;28;94518;-62
2023/06/14 20:14:41;;;;;;;;;;;24.70;43.30;;;;;;10288949;28;93575;-61
2023/06/14 20:19:43;;;;;;;;;;;24.70;43.20;;;;;;10288998;28;94193;-62
2023/06/14 20:24:45;;;;;;;;;;;24.70;43.20;;;;;;10288716;28;93634;-62
2023/06/14 20:29:47;;;;;;;;;;;24.60;43.20;;;;;;10287638;28;94699;-62
2023/06/14 20:34:49;;;;;;;;;;;24.60;43.30;;;;;;10285391;28;95438;-62
2023/06/14 20:39:53;;;;;;;;;;;24.60;43.30;;;;;;10287639;28;94660;-62
2023/06/14 20:44:55;;;;;;;;;;;24.60;43.30;;;;;;10287739;28;93706;-62
2023/06/14 20:49:57;;;;;;;;;;;24.60;43.40;;;;;;10287029;28;94793;-62
2023/06/14 20:54:58;;;;;;;;;;;24.60;43.40;;;;;;10270472;28;93366;-62
2023/06/14 21:00:06;;;;;;;;;;;24.60;43.50;;;;;;10287909;28;93366;-62
2023/06/14 21:05:08;;;;;;;;;;;24.60;43.70;;;;;;10286867;28;93704;-62
2023/06/14 21:10:10;;;;;;;;;;;24.50;43.80;;;;;;10288778;28;92040;-63
2023/06/14 21:15:11;;;;;;;;;;;24.50;44.00;;;;;;10286993;28;94532;-62
2023/06/14 21:20:13;;;;;;;;;;;24.50;44.30;;;;;;10287861;28;94538;-62
2023/06/14 21:25:15;;;;;;;;;;;24.50;44.60;;;;;;10283828;28;96038;-62
2023/06/14 21:30:17;;;;;;;;;;;24.50;44.70;;;;;;10286600;28;94437;-62
2023/06/14 21:35:19;;;;;;;;;;;24.50;44.90;;;;;;10286355;28;94549;-62
2023/06/14 21:40:21;;;;;;;;;;;24.50;45.00;;;;;;10287045;28;94466;-63
2023/06/14 21:45:23;;;;;;;;;;;24.50;45.40;;;;;;10270486;28;94998;-62
2023/06/14 21:50:25;;;;;;;;;;;24.50;45.40;;;;;;10293216;28;94585;-62
2023/06/14 21:55:27;;;;;;;;;;;24.50;45.50;;;;;;10293187;28;93007;-62
2023/06/14 22:00:29;;;;;;;;;;;24.50;45.70;;;;;;10275684;28;92752;-62
2023/06/14 22:05:31;;;;;;;;;;;24.50;45.70;;;;;;10276245;28;93650;-62
2023/06/14 22:10:33;;;;;;;;;;;24.50;45.90;;;;;;10274787;28;93536;-62
2023/06/14 22:15:34;;;;;;;;;;;24.50;46.00;;;;;;10289989;28;96822;-62
2023/06/14 22:20:38;;;;;;;;;;;24.50;46.10;;;;;;10292889;28;94284;-62
2023/06/14 22:25:40;;;;;;;;;;;24.50;46.10;;;;;;10292176;28;93724;-62
2023/06/14 22:30:44;;;;;;;;;;;24.50;46.20;;;;;;10291393;28;93867;-62
2023/06/14 22:35:46;;;;;;;;;;;24.50;46.20;;;;;;10273647;28;93677;-62
2023/06/14 22:40:48;;;;;;;;;;;24.50;46.30;;;;;;10291191;28;92781;-62
2023/06/14 22:45:51;;;;;;;;;;;24.50;46.30;;;;;;10273697;28;93523;-62
2023/06/14 22:50:52;;;;;;;;;;;24.50;46.40;;;;;;10273706;28;93415;-62
2023/06/14 22:55:54;;;;;;;;;;;24.50;46.40;;;;;;10273019;28;94641;-63
2023/06/14 23:00:57;;;;;;;;;;;24.50;46.50;;;;;;10291435;28;92776;-63
2023/06/14 23:06:02;;;;;;;;;;;24.50;46.50;;;;;;10287769;28;95734;-62
2023/06/14 23:11:04;;;;;;;;;;;24.50;46.60;;;;;;10271825;28;93767;-62
2023/06/14 23:16:07;;;;;;;;;;;24.50;46.70;;;;;;10273085;28;93574;-62
2023/06/14 23:21:13;;;;;;;;;;;24.40;46.60;;;;;;10290643;28;93352;-62
2023/06/14 23:26:15;;;;;;;;;;;24.40;46.60;;;;;;10290929;28;93531;-62
2023/06/14 23:31:17;;;;;;;;;;;24.40;46.70;;;;;;10272647;28;93325;-62
2023/06/14 23:36:19;;;;;;;;;;;24.40;46.70;;;;;;10291172;28;94450;-63
2023/06/14 23:41:30;;;;;;;;;;;24.40;46.70;;;;;;10290551;28;93109;-62
2023/06/14 23:46:32;;;;;;;;;;;24.40;46.70;;;;;;10290543;28;94490;-62
2023/06/14 23:51:34;;;;;;;;;;;24.40;46.80;;;;;;10289767;28;93593;-62
2023/06/14 23:56:39;;;;;;;;;;;24.40;46.80;;;;;;10287373;28;95901;-62
